Terminal Aerodrome Forecast
Issued by NWS

Home | Current Version | Previous Version | Text Only | Print | Product List | Glossary On
Versions: 1 2 3 4 5 6 7 8 9 10 11 12 13 14 15 16 17 18 19 20
000
FTUS43 KMPX 261503 AAA
TAFRNH
TAF AMD
KRNH 261503Z 2615/2712 00000KT P6SM VCSH BKN006 OVC025
     FM261600 03004KT P6SM -RA SCT006 OVC025
     FM261800 34003KT 5SM RA BR SCT020 OVC030
     FM270200 29004KT P6SM BKN050
     FM271000 26003KT P6SM SCT050 SCT250=

USA.gov is the U.S. government's official web portal to all federal, state and local government web resources and services.